sensor_id;sensor_type;location;lat;lon;timestamp;P1;durP1;ratioP1;P2;durP2;ratioP2
36189;SDS011;22232;50.914;13.858;2023-07-20T00:00:06;8.77;;;4.78;;
36189;SDS011;22232;50.914;13.858;2023-07-20T00:02:40;6.78;;;4.78;;
36189;SDS011;22232;50.914;13.858;2023-07-20T00:05:08;7.20;;;5.05;;
36189;SDS011;22232;50.914;13.858;2023-07-20T00:07:36;5.72;;;4.50;;
36189;SDS011;22232;50.914;13.858;2023-07-20T00:10:04;8.70;;;4.90;;
36189;SDS011;22232;50.914;13.858;2023-07-20T00:12:32;8.30;;;5.22;;
36189;SDS011;22232;50.914;13.858;2023-07-20T00:14:59;9.20;;;5.45;;
36189;SDS011;22232;50.914;13.858;2023-07-20T00:17:27;7.93;;;5.47;;
36189;SDS011;22232;50.914;13.858;2023-07-20T00:19:55;7.88;;;4.65;;
36189;SDS011;22232;50.914;13.858;2023-07-20T00:22:23;7.78;;;5.07;;
36189;SDS011;22232;50.914;13.858;2023-07-20T00:24:50;6.05;;;4.95;;
36189;SDS011;22232;50.914;13.858;2023-07-20T00:27:18;5.75;;;4.72;;
36189;SDS011;22232;50.914;13.858;2023-07-20T00:29:46;9.25;;;5.35;;
36189;SDS011;22232;50.914;13.858;2023-07-20T00:32:13;7.43;;;4.55;;
36189;SDS011;22232;50.914;13.858;2023-07-20T00:34:41;6.07;;;4.70;;
36189;SDS011;22232;50.914;13.858;2023-07-20T00:37:09;7.63;;;4.28;;
36189;SDS011;22232;50.914;13.858;2023-07-20T00:39:37;8.13;;;4.68;;
36189;SDS011;22232;50.914;13.858;2023-07-20T00:42:05;7.35;;;4.00;;
36189;SDS011;22232;50.914;13.858;2023-07-20T00:44:33;4.20;;;3.70;;
36189;SDS011;22232;50.914;13.858;2023-07-20T00:47:02;5.78;;;3.38;;
36189;SDS011;22232;50.914;13.858;2023-07-20T00:49:32;5.18;;;3.30;;
36189;SDS011;22232;50.914;13.858;2023-07-20T00:52:00;4.35;;;3.08;;
36189;SDS011;22232;50.914;13.858;2023-07-20T00:54:30;9.18;;;4.07;;
36189;SDS011;22232;50.914;13.858;2023-07-20T00:56:58;7.18;;;4.13;;
36189;SDS011;22232;50.914;13.858;2023-07-20T00:59:28;6.57;;;3.53;;
36189;SDS011;22232;50.914;13.858;2023-07-20T01:01:56;5.63;;;3.97;;
36189;SDS011;22232;50.914;13.858;2023-07-20T01:04:24;4.22;;;3.83;;
36189;SDS011;22232;50.914;13.858;2023-07-20T01:07:38;9.68;;;4.00;;
36189;SDS011;22232;50.914;13.858;2023-07-20T01:09:56;7.28;;;4.15;;
36189;SDS011;22232;50.914;13.858;2023-07-20T01:12:35;7.53;;;4.20;;
36189;SDS011;22232;50.914;13.858;2023-07-20T01:15:10;7.35;;;4.18;;
36189;SDS011;22232;50.914;13.858;2023-07-20T01:17:38;5.20;;;3.85;;
36189;SDS011;22232;50.914;13.858;2023-07-20T01:20:10;4.60;;;3.90;;
36189;SDS011;22232;50.914;13.858;2023-07-20T01:33:53;4.07;;;3.65;;
36189;SDS011;22232;50.914;13.858;2023-07-20T01:36:24;5.45;;;3.63;;
36189;SDS011;22232;50.914;13.858;2023-07-20T01:38:55;7.47;;;4.03;;
36189;SDS011;22232;50.914;13.858;2023-07-20T01:41:23;6.50;;;4.10;;
36189;SDS011;22232;50.914;13.858;2023-07-20T01:43:51;6.30;;;3.65;;
36189;SDS011;22232;50.914;13.858;2023-07-20T01:46:19;5.82;;;3.80;;
36189;SDS011;22232;50.914;13.858;2023-07-20T01:48:47;7.32;;;4.55;;
36189;SDS011;22232;50.914;13.858;2023-07-20T01:51:15;5.32;;;4.30;;
36189;SDS011;22232;50.914;13.858;2023-07-20T01:53:45;10.00;;;5.03;;
36189;SDS011;22232;50.914;13.858;2023-07-20T01:56:14;5.80;;;4.72;;
36189;SDS011;22232;50.914;13.858;2023-07-20T01:58:42;10.18;;;5.60;;
36189;SDS011;22232;50.914;13.858;2023-07-20T02:01:10;9.73;;;5.25;;
36189;SDS011;22232;50.914;13.858;2023-07-20T02:03:37;11.77;;;5.97;;
36189;SDS011;22232;50.914;13.858;2023-07-20T02:06:05;12.73;;;6.15;;
36189;SDS011;22232;50.914;13.858;2023-07-20T02:08:33;10.52;;;6.30;;
36189;SDS011;22232;50.914;13.858;2023-07-20T02:11:00;10.55;;;5.30;;
36189;SDS011;22232;50.914;13.858;2023-07-20T02:13:30;8.25;;;5.93;;
36189;SDS011;22232;50.914;13.858;2023-07-20T02:15:57;10.38;;;6.38;;
36189;SDS011;22232;50.914;13.858;2023-07-20T02:18:25;10.95;;;5.95;;
36189;SDS011;22232;50.914;13.858;2023-07-20T02:20:53;12.30;;;6.50;;
36189;SDS011;22232;50.914;13.858;2023-07-20T02:23:21;12.55;;;7.15;;
36189;SDS011;22232;50.914;13.858;2023-07-20T02:25:49;9.57;;;5.97;;
36189;SDS011;22232;50.914;13.858;2023-07-20T02:28:17;10.13;;;7.10;;
36189;SDS011;22232;50.914;13.858;2023-07-20T02:30:44;10.38;;;7.28;;
36189;SDS011;22232;50.914;13.858;2023-07-20T02:33:13;10.77;;;8.10;;
36189;SDS011;22232;50.914;13.858;2023-07-20T02:35:40;10.88;;;7.75;;
36189;SDS011;22232;50.914;13.858;2023-07-20T02:38:08;10.02;;;8.00;;
36189;SDS011;22232;50.914;13.858;2023-07-20T02:40:36;10.95;;;7.40;;
36189;SDS011;22232;50.914;13.858;2023-07-20T02:43:04;9.13;;;7.20;;
36189;SDS011;22232;50.914;13.858;2023-07-20T02:45:31;13.63;;;8.18;;
36189;SDS011;22232;50.914;13.858;2023-07-20T02:47:59;15.85;;;8.55;;
36189;SDS011;22232;50.914;13.858;2023-07-20T02:50:28;11.13;;;8.25;;
36189;SDS011;22232;50.914;13.858;2023-07-20T02:52:55;10.48;;;9.38;;
36189;SDS011;22232;50.914;13.858;2023-07-20T02:55:23;15.85;;;9.05;;
36189;SDS011;22232;50.914;13.858;2023-07-20T02:57:51;14.70;;;9.05;;
36189;SDS011;22232;50.914;13.858;2023-07-20T03:00:19;13.55;;;9.25;;
36189;SDS011;22232;50.914;13.858;2023-07-20T03:02:47;15.70;;;9.60;;
36189;SDS011;22232;50.914;13.858;2023-07-20T03:05:15;12.10;;;9.23;;
36189;SDS011;22232;50.914;13.858;2023-07-20T03:07:44;13.60;;;9.60;;
36189;SDS011;22232;50.914;13.858;2023-07-20T03:10:11;12.07;;;9.13;;
36189;SDS011;22232;50.914;13.858;2023-07-20T03:12:40;11.25;;;9.07;;
36189;SDS011;22232;50.914;13.858;2023-07-20T03:15:08;12.27;;;9.90;;
36189;SDS011;22232;50.914;13.858;2023-07-20T03:17:36;17.17;;;10.05;;
36189;SDS011;22232;50.914;13.858;2023-07-20T03:20:05;11.93;;;9.45;;
36189;SDS011;22232;50.914;13.858;2023-07-20T03:22:36;14.40;;;9.95;;
36189;SDS011;22232;50.914;13.858;2023-07-20T03:25:04;13.95;;;9.85;;
36189;SDS011;22232;50.914;13.858;2023-07-20T03:27:32;13.82;;;9.50;;
36189;SDS011;22232;50.914;13.858;2023-07-20T03:30:01;16.05;;;10.15;;
36189;SDS011;22232;50.914;13.858;2023-07-20T03:32:29;17.70;;;9.52;;
36189;SDS011;22232;50.914;13.858;2023-07-20T03:34:57;13.27;;;9.35;;
36189;SDS011;22232;50.914;13.858;2023-07-20T03:37:25;13.70;;;9.20;;
36189;SDS011;22232;50.914;13.858;2023-07-20T03:39:53;12.13;;;9.00;;
36189;SDS011;22232;50.914;13.858;2023-07-20T03:42:22;10.65;;;8.75;;
36189;SDS011;22232;50.914;13.858;2023-07-20T03:44:50;11.50;;;9.65;;
36189;SDS011;22232;50.914;13.858;2023-07-20T03:47:18;15.50;;;9.88;;
36189;SDS011;22232;50.914;13.858;2023-07-20T03:49:46;15.32;;;8.55;;
36189;SDS011;22232;50.914;13.858;2023-07-20T03:52:13;9.05;;;7.63;;
36189;SDS011;22232;50.914;13.858;2023-07-20T03:54:41;12.57;;;8.27;;
36189;SDS011;22232;50.914;13.858;2023-07-20T03:57:09;10.68;;;7.53;;
36189;SDS011;22232;50.914;13.858;2023-07-20T03:59:37;10.32;;;7.63;;
36189;SDS011;22232;50.914;13.858;2023-07-20T04:02:06;10.18;;;7.57;;
36189;SDS011;22232;50.914;13.858;2023-07-20T04:04:34;9.35;;;6.70;;
36189;SDS011;22232;50.914;13.858;2023-07-20T04:07:02;7.72;;;6.07;;
36189;SDS011;22232;50.914;13.858;2023-07-20T04:09:31;8.20;;;6.82;;
36189;SDS011;22232;50.914;13.858;2023-07-20T04:11:59;9.80;;;6.78;;
36189;SDS011;22232;50.914;13.858;2023-07-20T04:14:27;10.35;;;6.35;;
36189;SDS011;22232;50.914;13.858;2023-07-20T04:16:55;10.75;;;6.45;;
36189;SDS011;22232;50.914;13.858;2023-07-20T04:19:23;10.25;;;6.45;;
36189;SDS011;22232;50.914;13.858;2023-07-20T04:21:50;7.57;;;6.63;;
36189;SDS011;22232;50.914;13.858;2023-07-20T04:24:18;12.32;;;6.10;;
36189;SDS011;22232;50.914;13.858;2023-07-20T04:26:46;10.73;;;6.18;;
36189;SDS011;22232;50.914;13.858;2023-07-20T04:29:14;7.25;;;6.18;;
36189;SDS011;22232;50.914;13.858;2023-07-20T04:31:43;9.80;;;5.60;;
36189;SDS011;22232;50.914;13.858;2023-07-20T04:34:11;11.95;;;6.00;;
36189;SDS011;22232;50.914;13.858;2023-07-20T04:36:39;8.05;;;5.90;;
36189;SDS011;22232;50.914;13.858;2023-07-20T04:39:09;9.15;;;5.85;;
36189;SDS011;22232;50.914;13.858;2023-07-20T04:41:57;10.02;;;6.07;;
36189;SDS011;22232;50.914;13.858;2023-07-20T04:44:25;7.85;;;5.43;;
36189;SDS011;22232;50.914;13.858;2023-07-20T04:46:53;9.02;;;6.80;;
36189;SDS011;22232;50.914;13.858;2023-07-20T04:49:20;7.32;;;5.95;;
36189;SDS011;22232;50.914;13.858;2023-07-20T04:51:48;10.55;;;7.13;;
36189;SDS011;22232;50.914;13.858;2023-07-20T04:54:17;7.25;;;6.55;;
36189;SDS011;22232;50.914;13.858;2023-07-20T04:56:47;8.52;;;7.15;;
36189;SDS011;22232;50.914;13.858;2023-07-20T04:59:19;11.45;;;7.65;;
36189;SDS011;22232;50.914;13.858;2023-07-20T05:01:47;15.57;;;8.93;;
36189;SDS011;22232;50.914;13.858;2023-07-20T05:04:16;11.60;;;8.00;;
36189;SDS011;22232;50.914;13.858;2023-07-20T05:06:46;14.00;;;9.45;;
36189;SDS011;22232;50.914;13.858;2023-07-20T05:09:13;12.98;;;9.98;;
36189;SDS011;22232;50.914;13.858;2023-07-20T05:11:41;14.43;;;9.55;;
36189;SDS011;22232;50.914;13.858;2023-07-20T05:14:09;14.30;;;9.60;;
36189;SDS011;22232;50.914;13.858;2023-07-20T05:16:37;12.15;;;9.98;;
36189;SDS011;22232;50.914;13.858;2023-07-20T05:19:06;14.85;;;10.35;;
36189;SDS011;22232;50.914;13.858;2023-07-20T05:21:34;11.93;;;9.35;;
36189;SDS011;22232;50.914;13.858;2023-07-20T05:24:02;15.05;;;11.20;;
36189;SDS011;22232;50.914;13.858;2023-07-20T05:26:30;16.38;;;10.55;;
36189;SDS011;22232;50.914;13.858;2023-07-20T05:28:57;13.65;;;9.85;;
36189;SDS011;22232;50.914;13.858;2023-07-20T05:31:25;13.30;;;9.60;;
36189;SDS011;22232;50.914;13.858;2023-07-20T05:33:53;17.58;;;9.73;;
36189;SDS011;22232;50.914;13.858;2023-07-20T05:36:21;15.32;;;9.80;;
36189;SDS011;22232;50.914;13.858;2023-07-20T05:38:49;14.50;;;9.50;;
36189;SDS011;22232;50.914;13.858;2023-07-20T05:41:17;8.82;;;7.80;;
36189;SDS011;22232;50.914;13.858;2023-07-20T05:43:44;9.95;;;7.60;;
36189;SDS011;22232;50.914;13.858;2023-07-20T05:46:12;15.02;;;8.32;;
36189;SDS011;22232;50.914;13.858;2023-07-20T05:48:40;11.07;;;8.52;;
36189;SDS011;22232;50.914;13.858;2023-07-20T05:51:08;11.85;;;8.10;;
36189;SDS011;22232;50.914;13.858;2023-07-20T05:53:35;11.32;;;8.43;;
36189;SDS011;22232;50.914;13.858;2023-07-20T05:56:03;12.63;;;9.15;;
36189;SDS011;22232;50.914;13.858;2023-07-20T05:58:32;11.52;;;8.57;;
36189;SDS011;22232;50.914;13.858;2023-07-20T06:00:59;9.88;;;7.15;;
36189;SDS011;22232;50.914;13.858;2023-07-20T06:03:27;9.88;;;6.65;;
36189;SDS011;22232;50.914;13.858;2023-07-20T06:06:01;11.45;;;7.03;;
36189;SDS011;22232;50.914;13.858;2023-07-20T06:08:30;9.38;;;6.70;;
36189;SDS011;22232;50.914;13.858;2023-07-20T06:10:58;12.63;;;7.20;;
36189;SDS011;22232;50.914;13.858;2023-07-20T06:13:25;12.32;;;6.97;;
36189;SDS011;22232;50.914;13.858;2023-07-20T06:15:53;10.38;;;6.13;;
36189;SDS011;22232;50.914;13.858;2023-07-20T06:18:22;6.65;;;4.85;;
36189;SDS011;22232;50.914;13.858;2023-07-20T06:20:50;8.82;;;5.43;;
36189;SDS011;22232;50.914;13.858;2023-07-20T06:23:19;7.60;;;5.32;;
36189;SDS011;22232;50.914;13.858;2023-07-20T06:25:47;10.55;;;5.22;;
36189;SDS011;22232;50.914;13.858;2023-07-20T06:28:15;9.82;;;4.57;;
36189;SDS011;22232;50.914;13.858;2023-07-20T06:30:42;8.65;;;4.30;;
36189;SDS011;22232;50.914;13.858;2023-07-20T06:33:10;7.93;;;4.57;;
36189;SDS011;22232;50.914;13.858;2023-07-20T06:35:40;6.53;;;4.28;;
36189;SDS011;22232;50.914;13.858;2023-07-20T06:38:10;9.55;;;3.92;;
36189;SDS011;22232;50.914;13.858;2023-07-20T06:40:40;7.60;;;3.97;;
36189;SDS011;22232;50.914;13.858;2023-07-20T06:43:08;5.93;;;4.03;;
36189;SDS011;22232;50.914;13.858;2023-07-20T06:45:39;6.78;;;3.97;;
36189;SDS011;22232;50.914;13.858;2023-07-20T06:48:06;6.70;;;3.70;;
36189;SDS011;22232;50.914;13.858;2023-07-20T06:50:34;5.53;;;3.97;;
36189;SDS011;22232;50.914;13.858;2023-07-20T06:53:02;6.93;;;4.50;;
36189;SDS011;22232;50.914;13.858;2023-07-20T06:55:32;15.23;;;5.03;;
36189;SDS011;22232;50.914;13.858;2023-07-20T06:58:08;7.53;;;3.55;;
36189;SDS011;22232;50.914;13.858;2023-07-20T07:00:36;7.32;;;3.05;;
36189;SDS011;22232;50.914;13.858;2023-07-20T07:03:04;2.72;;;2.40;;
36189;SDS011;22232;50.914;13.858;2023-07-20T07:05:34;3.55;;;2.50;;
36189;SDS011;22232;50.914;13.858;2023-07-20T07:08:04;6.03;;;3.28;;
36189;SDS011;22232;50.914;13.858;2023-07-20T07:10:34;4.60;;;3.22;;
36189;SDS011;22232;50.914;13.858;2023-07-20T07:13:03;3.50;;;3.20;;
36189;SDS011;22232;50.914;13.858;2023-07-20T07:15:32;5.93;;;3.45;;
36189;SDS011;22232;50.914;13.858;2023-07-20T07:18:00;4.82;;;3.03;;
36189;SDS011;22232;50.914;13.858;2023-07-20T07:20:27;6.60;;;3.88;;
36189;SDS011;22232;50.914;13.858;2023-07-20T07:22:55;3.95;;;3.50;;
36189;SDS011;22232;50.914;13.858;2023-07-20T07:28:42;4.15;;;3.35;;
36189;SDS011;22232;50.914;13.858;2023-07-20T07:31:09;4.20;;;3.28;;
36189;SDS011;22232;50.914;13.858;2023-07-20T07:33:37;4.18;;;3.15;;
36189;SDS011;22232;50.914;13.858;2023-07-20T07:36:05;2.97;;;2.55;;
36189;SDS011;22232;50.914;13.858;2023-07-20T07:38:33;2.28;;;2.13;;
36189;SDS011;22232;50.914;13.858;2023-07-20T07:41:20;3.28;;;2.45;;
36189;SDS011;22232;50.914;13.858;2023-07-20T07:43:48;5.28;;;2.75;;
36189;SDS011;22232;50.914;13.858;2023-07-20T07:46:16;4.60;;;2.95;;
36189;SDS011;22232;50.914;13.858;2023-07-20T07:48:44;3.45;;;3.15;;
36189;SDS011;22232;50.914;13.858;2023-07-20T07:51:12;3.55;;;3.25;;
36189;SDS011;22232;50.914;13.858;2023-07-20T07:53:42;4.53;;;3.30;;
36189;SDS011;22232;50.914;13.858;2023-07-20T07:56:10;4.63;;;3.75;;
36189;SDS011;22232;50.914;13.858;2023-07-20T07:58:38;4.40;;;3.13;;
36189;SDS011;22232;50.914;13.858;2023-07-20T08:01:06;3.65;;;3.20;;
36189;SDS011;22232;50.914;13.858;2023-07-20T08:03:34;5.10;;;3.10;;
36189;SDS011;22232;50.914;13.858;2023-07-20T08:06:03;5.05;;;3.15;;
36189;SDS011;22232;50.914;13.858;2023-07-20T08:08:32;2.70;;;2.50;;
36189;SDS011;22232;50.914;13.858;2023-07-20T08:10:59;3.25;;;2.47;;
36189;SDS011;22232;50.914;13.858;2023-07-20T08:13:34;3.55;;;2.42;;
36189;SDS011;22232;50.914;13.858;2023-07-20T08:16:02;4.32;;;2.03;;
36189;SDS011;22232;50.914;13.858;2023-07-20T08:18:30;2.38;;;2.13;;
36189;SDS011;22232;50.914;13.858;2023-07-20T08:20:58;2.75;;;1.92;;
36189;SDS011;22232;50.914;13.858;2023-07-20T08:23:26;3.22;;;1.85;;
36189;SDS011;22232;50.914;13.858;2023-07-20T08:25:54;3.45;;;1.95;;
36189;SDS011;22232;50.914;13.858;2023-07-20T08:28:22;2.45;;;1.90;;
36189;SDS011;22232;50.914;13.858;2023-07-20T08:30:50;2.05;;;1.85;;
36189;SDS011;22232;50.914;13.858;2023-07-20T08:33:18;5.97;;;2.13;;
36189;SDS011;22232;50.914;13.858;2023-07-20T08:35:50;3.53;;;2.03;;
36189;SDS011;22232;50.914;13.858;2023-07-20T08:38:18;2.33;;;1.92;;
36189;SDS011;22232;50.914;13.858;2023-07-20T08:40:46;3.40;;;2.40;;
36189;SDS011;22232;50.914;13.858;2023-07-20T08:43:14;4.53;;;2.00;;
36189;SDS011;22232;50.914;13.858;2023-07-20T08:45:46;3.85;;;1.92;;
36189;SDS011;22232;50.914;13.858;2023-07-20T08:48:15;2.85;;;2.40;;
36189;SDS011;22232;50.914;13.858;2023-07-20T08:50:46;2.28;;;2.10;;
36189;SDS011;22232;50.914;13.858;2023-07-20T08:53:16;2.70;;;2.35;;
36189;SDS011;22232;50.914;13.858;2023-07-20T08:55:45;2.15;;;2.05;;
36189;SDS011;22232;50.914;13.858;2023-07-20T08:58:14;3.25;;;2.10;;
36189;SDS011;22232;50.914;13.858;2023-07-20T09:00:42;4.43;;;2.22;;
36189;SDS011;22232;50.914;13.858;2023-07-20T09:03:13;3.45;;;2.22;;
36189;SDS011;22232;50.914;13.858;2023-07-20T09:05:42;3.38;;;2.50;;
36189;SDS011;22232;50.914;13.858;2023-07-20T09:08:10;2.85;;;2.65;;
36189;SDS011;22232;50.914;13.858;2023-07-20T09:10:37;2.85;;;2.38;;
36189;SDS011;22232;50.914;13.858;2023-07-20T09:13:05;3.95;;;2.60;;
36189;SDS011;22232;50.914;13.858;2023-07-20T09:15:36;4.45;;;2.75;;
36189;SDS011;22232;50.914;13.858;2023-07-20T09:18:04;2.50;;;2.30;;
36189;SDS011;22232;50.914;13.858;2023-07-20T09:20:32;3.28;;;2.78;;
36189;SDS011;22232;50.914;13.858;2023-07-20T09:23:06;3.38;;;2.50;;
36189;SDS011;22232;50.914;13.858;2023-07-20T09:25:34;3.92;;;2.72;;
36189;SDS011;22232;50.914;13.858;2023-07-20T09:28:03;3.88;;;2.58;;
36189;SDS011;22232;50.914;13.858;2023-07-20T09:30:32;4.60;;;2.58;;
36189;SDS011;22232;50.914;13.858;2023-07-20T09:33:00;3.58;;;2.20;;
36189;SDS011;22232;50.914;13.858;2023-07-20T09:35:28;2.65;;;2.45;;
36189;SDS011;22232;50.914;13.858;2023-07-20T09:38:09;3.55;;;2.85;;
36189;SDS011;22232;50.914;13.858;2023-07-20T09:40:39;2.28;;;2.08;;
36189;SDS011;22232;50.914;13.858;2023-07-20T09:43:11;2.90;;;2.40;;
36189;SDS011;22232;50.914;13.858;2023-07-20T09:45:42;3.15;;;2.25;;
36189;SDS011;22232;50.914;13.858;2023-07-20T09:48:12;2.28;;;2.03;;
36189;SDS011;22232;50.914;13.858;2023-07-20T09:50:48;2.63;;;2.30;;
36189;SDS011;22232;50.914;13.858;2023-07-20T09:53:20;3.97;;;1.80;;
36189;SDS011;22232;50.914;13.858;2023-07-20T09:55:48;3.60;;;1.75;;
36189;SDS011;22232;50.914;13.858;2023-07-20T09:58:16;2.17;;;1.70;;
36189;SDS011;22232;50.914;13.858;2023-07-20T10:00:44;2.05;;;1.85;;
36189;SDS011;22232;50.914;13.858;2023-07-20T10:03:28;2.38;;;1.60;;
36189;SDS011;22232;50.914;13.858;2023-07-20T10:06:08;1.60;;;1.50;;
36189;SDS011;22232;50.914;13.858;2023-07-20T10:08:40;1.70;;;1.40;;
36189;SDS011;22232;50.914;13.858;2023-07-20T10:11:12;2.95;;;1.92;;
36189;SDS011;22232;50.914;13.858;2023-07-20T10:13:43;2.00;;;1.80;;
36189;SDS011;22232;50.914;13.858;2023-07-20T10:16:20;2.55;;;1.63;;
36189;SDS011;22232;50.914;13.858;2023-07-20T10:19:07;3.65;;;1.45;;
36189;SDS011;22232;50.914;13.858;2023-07-20T10:21:47;1.77;;;1.50;;
36189;SDS011;22232;50.914;13.858;2023-07-20T10:24:25;5.28;;;1.65;;
36189;SDS011;22232;50.914;13.858;2023-07-20T10:26:55;3.47;;;1.60;;
36189;SDS011;22232;50.914;13.858;2023-07-20T10:29:23;1.83;;;1.30;;
36189;SDS011;22232;50.914;13.858;2023-07-20T10:31:56;4.20;;;1.57;;
36189;SDS011;22232;50.914;13.858;2023-07-20T10:34:25;1.42;;;1.33;;
36189;SDS011;22232;50.914;13.858;2023-07-20T10:36:52;4.10;;;1.75;;
36189;SDS011;22232;50.914;13.858;2023-07-20T10:39:25;1.88;;;1.15;;
36189;SDS011;22232;50.914;13.858;2023-07-20T10:42:02;2.47;;;1.42;;
36189;SDS011;22232;50.914;13.858;2023-07-20T10:44:39;2.78;;;1.35;;
36189;SDS011;22232;50.914;13.858;2023-07-20T10:47:11;2.00;;;1.35;;
36189;SDS011;22232;50.914;13.858;2023-07-20T10:49:59;2.10;;;1.15;;
36189;SDS011;22232;50.914;13.858;2023-07-20T10:52:37;2.00;;;1.42;;
36189;SDS011;22232;50.914;13.858;2023-07-20T10:55:10;3.25;;;1.63;;
36189;SDS011;22232;50.914;13.858;2023-07-20T10:57:42;1.20;;;1.10;;
36189;SDS011;22232;50.914;13.858;2023-07-20T11:00:12;1.48;;;1.30;;
36189;SDS011;22232;50.914;13.858;2023-07-20T11:02:48;3.40;;;1.40;;
36189;SDS011;22232;50.914;13.858;2023-07-20T11:08:11;1.40;;;1.10;;
36189;SDS011;22232;50.914;13.858;2023-07-20T11:10:40;1.88;;;1.27;;
36189;SDS011;22232;50.914;13.858;2023-07-20T11:13:17;1.58;;;1.10;;
36189;SDS011;22232;50.914;13.858;2023-07-20T11:15:47;3.30;;;2.05;;
36189;SDS011;22232;50.914;13.858;2023-07-20T11:18:35;4.50;;;2.65;;
36189;SDS011;22232;50.914;13.858;2023-07-20T11:21:08;3.38;;;2.92;;
36189;SDS011;22232;50.914;13.858;2023-07-20T11:23:37;4.72;;;3.38;;
36189;SDS011;22232;50.914;13.858;2023-07-20T11:26:05;3.70;;;3.40;;
36189;SDS011;22232;50.914;13.858;2023-07-20T11:28:34;5.13;;;3.97;;
36189;SDS011;22232;50.914;13.858;2023-07-20T11:31:01;4.93;;;4.43;;
36189;SDS011;22232;50.914;13.858;2023-07-20T11:33:29;7.07;;;4.80;;
36189;SDS011;22232;50.914;13.858;2023-07-20T11:35:57;6.50;;;5.82;;
36189;SDS011;22232;50.914;13.858;2023-07-20T11:38:25;4.72;;;4.32;;
36189;SDS011;22232;50.914;13.858;2023-07-20T11:40:52;5.00;;;4.60;;
36189;SDS011;22232;50.914;13.858;2023-07-20T11:43:20;5.15;;;4.65;;
36189;SDS011;22232;50.914;13.858;2023-07-20T11:45:50;4.70;;;4.10;;
36189;SDS011;22232;50.914;13.858;2023-07-20T11:48:18;4.65;;;4.25;;
36189;SDS011;22232;50.914;13.858;2023-07-20T11:50:45;4.43;;;4.00;;
36189;SDS011;22232;50.914;13.858;2023-07-20T11:53:14;3.85;;;3.50;;
36189;SDS011;22232;50.914;13.858;2023-07-20T11:55:43;3.33;;;3.03;;
36189;SDS011;22232;50.914;13.858;2023-07-20T11:58:12;5.50;;;3.63;;
36189;SDS011;22232;50.914;13.858;2023-07-20T12:00:44;4.22;;;2.90;;
36189;SDS011;22232;50.914;13.858;2023-07-20T12:03:13;4.80;;;3.38;;
36189;SDS011;22232;50.914;13.858;2023-07-20T12:05:41;3.47;;;2.70;;
36189;SDS011;22232;50.914;13.858;2023-07-20T12:08:11;4.53;;;3.72;;
36189;SDS011;22232;50.914;13.858;2023-07-20T12:10:39;4.75;;;2.97;;
36189;SDS011;22232;50.914;13.858;2023-07-20T12:13:11;4.72;;;3.85;;
36189;SDS011;22232;50.914;13.858;2023-07-20T12:15:39;3.78;;;3.35;;
36189;SDS011;22232;50.914;13.858;2023-07-20T12:18:07;5.07;;;4.10;;
36189;SDS011;22232;50.914;13.858;2023-07-20T12:20:36;4.05;;;3.75;;
36189;SDS011;22232;50.914;13.858;2023-07-20T12:23:08;4.63;;;3.80;;
36189;SDS011;22232;50.914;13.858;2023-07-20T12:28:10;5.50;;;5.00;;
36189;SDS011;22232;50.914;13.858;2023-07-20T12:30:40;5.97;;;4.53;;
36189;SDS011;22232;50.914;13.858;2023-07-20T12:33:08;7.93;;;5.85;;
36189;SDS011;22232;50.914;13.858;2023-07-20T12:35:36;6.80;;;6.10;;
36189;SDS011;22232;50.914;13.858;2023-07-20T12:38:04;6.78;;;6.18;;
36189;SDS011;22232;50.914;13.858;2023-07-20T12:40:33;7.43;;;6.72;;
36189;SDS011;22232;50.914;13.858;2023-07-20T12:43:01;8.88;;;7.40;;
36189;SDS011;22232;50.914;13.858;2023-07-20T12:45:29;7.97;;;7.18;;
36189;SDS011;22232;50.914;13.858;2023-07-20T12:47:57;8.70;;;6.97;;
36189;SDS011;22232;50.914;13.858;2023-07-20T12:50:24;6.82;;;6.18;;
36189;SDS011;22232;50.914;13.858;2023-07-20T12:52:52;6.63;;;6.03;;
36189;SDS011;22232;50.914;13.858;2023-07-20T12:55:20;4.85;;;4.00;;
36189;SDS011;22232;50.914;13.858;2023-07-20T12:57:48;2.97;;;2.72;;
36189;SDS011;22232;50.914;13.858;2023-07-20T13:00:16;3.35;;;2.40;;
36189;SDS011;22232;50.914;13.858;2023-07-20T13:02:44;5.03;;;2.80;;
36189;SDS011;22232;50.914;13.858;2023-07-20T13:05:12;8.20;;;4.20;;
36189;SDS011;22232;50.914;13.858;2023-07-20T13:07:40;6.10;;;4.35;;
36189;SDS011;22232;50.914;13.858;2023-07-20T13:10:11;5.35;;;3.80;;
36189;SDS011;22232;50.914;13.858;2023-07-20T13:12:39;4.35;;;3.63;;
36189;SDS011;22232;50.914;13.858;2023-07-20T13:15:08;5.15;;;3.60;;
36189;SDS011;22232;50.914;13.858;2023-07-20T13:17:37;4.72;;;3.60;;
36189;SDS011;22232;50.914;13.858;2023-07-20T13:20:09;5.95;;;3.88;;
36189;SDS011;22232;50.914;13.858;2023-07-20T13:22:38;5.10;;;3.97;;
36189;SDS011;22232;50.914;13.858;2023-07-20T13:25:07;7.55;;;4.80;;
36189;SDS011;22232;50.914;13.858;2023-07-20T13:27:35;6.13;;;4.50;;
36189;SDS011;22232;50.914;13.858;2023-07-20T13:30:05;4.78;;;4.07;;
36189;SDS011;22232;50.914;13.858;2023-07-20T13:32:36;4.65;;;3.92;;
36189;SDS011;22232;50.914;13.858;2023-07-20T13:35:10;3.88;;;3.47;;
36189;SDS011;22232;50.914;13.858;2023-07-20T13:37:39;3.08;;;2.75;;
36189;SDS011;22232;50.914;13.858;2023-07-20T13:40:07;3.40;;;2.78;;
36189;SDS011;22232;50.914;13.858;2023-07-20T13:42:39;4.90;;;2.83;;
36189;SDS011;22232;50.914;13.858;2023-07-20T13:45:07;2.15;;;1.90;;
36189;SDS011;22232;50.914;13.858;2023-07-20T13:47:35;2.38;;;2.17;;
36189;SDS011;22232;50.914;13.858;2023-07-20T13:50:04;2.83;;;1.98;;
36189;SDS011;22232;50.914;13.858;2023-07-20T13:52:32;2.17;;;1.90;;
36189;SDS011;22232;50.914;13.858;2023-07-20T13:55:03;1.90;;;1.80;;
36189;SDS011;22232;50.914;13.858;2023-07-20T13:57:32;2.53;;;2.33;;
36189;SDS011;22232;50.914;13.858;2023-07-20T14:00:02;4.25;;;2.65;;
36189;SDS011;22232;50.914;13.858;2023-07-20T14:02:40;2.92;;;2.63;;
36189;SDS011;22232;50.914;13.858;2023-07-20T14:05:11;3.45;;;2.50;;
36189;SDS011;22232;50.914;13.858;2023-07-20T14:07:41;4.00;;;2.97;;
36189;SDS011;22232;50.914;13.858;2023-07-20T14:10:10;4.88;;;2.58;;
36189;SDS011;22232;50.914;13.858;2023-07-20T14:12:41;2.97;;;2.38;;
36189;SDS011;22232;50.914;13.858;2023-07-20T14:15:09;2.30;;;2.10;;
36189;SDS011;22232;50.914;13.858;2023-07-20T14:17:38;2.88;;;2.60;;
36189;SDS011;22232;50.914;13.858;2023-07-20T14:20:06;4.88;;;3.35;;
36189;SDS011;22232;50.914;13.858;2023-07-20T14:22:48;2.97;;;2.20;;
36189;SDS011;22232;50.914;13.858;2023-07-20T14:25:17;3.42;;;2.35;;
36189;SDS011;22232;50.914;13.858;2023-07-20T14:27:46;4.93;;;2.22;;
36189;SDS011;22232;50.914;13.858;2023-07-20T14:30:14;2.95;;;2.10;;
36189;SDS011;22232;50.914;13.858;2023-07-20T14:32:41;3.42;;;2.10;;
36189;SDS011;22232;50.914;13.858;2023-07-20T14:35:09;3.67;;;2.28;;
36189;SDS011;22232;50.914;13.858;2023-07-20T14:37:37;2.95;;;2.33;;
36189;SDS011;22232;50.914;13.858;2023-07-20T14:40:05;2.20;;;2.00;;
36189;SDS011;22232;50.914;13.858;2023-07-20T14:42:35;2.42;;;2.22;;
36189;SDS011;22232;50.914;13.858;2023-07-20T14:45:03;2.75;;;2.35;;
36189;SDS011;22232;50.914;13.858;2023-07-20T14:47:32;2.50;;;2.30;;
36189;SDS011;22232;50.914;13.858;2023-07-20T14:50:02;2.03;;;1.90;;
36189;SDS011;22232;50.914;13.858;2023-07-20T14:52:31;3.08;;;1.88;;
36189;SDS011;22232;50.914;13.858;2023-07-20T14:54:58;2.70;;;2.05;;
36189;SDS011;22232;50.914;13.858;2023-07-20T14:57:26;2.65;;;2.00;;
36189;SDS011;22232;50.914;13.858;2023-07-20T14:59:54;2.47;;;2.10;;
36189;SDS011;22232;50.914;13.858;2023-07-20T15:02:22;2.70;;;1.85;;